Time;durP1;ratioP1;P1;durP2;ratioP2;P2;SDS_P1;SDS_P2;PMS_P1;PMS_P2;Temp;Humidity;BMP_temperature;BMP_pressure;BME280_temperature;BME280_humidity;BME280_pressure;Samples;Min_cycle;Max_cycle;Signal;HPM_P1;HPM_P2
2022/03/12 00:01:37;;;;;;;12.60;8.63;;;;;;;-3.56;86.70;61636.88;5024678;28;20222;-77
2022/03/12 00:04:06;;;;;;;13.82;8.38;;;;;;;-3.64;87.04;61638.13;5025390;28;20309;-76
2022/03/12 00:06:34;;;;;;;12.73;7.68;;;;;;;-3.53;87.24;61641.91;5030068;28;20221;-76
2022/03/12 00:09:01;;;;;;;17.70;8.00;;;;;;;-3.37;87.41;61660.22;5029189;28;20195;-76
2022/03/12 00:11:34;;;;;;;18.25;8.60;;;;;;;-3.31;87.49;61661.38;5030313;28;20202;-75
2022/03/12 00:14:03;;;;;;;12.60;8.48;;;;;;;-3.19;87.18;61676.63;5033343;28;20198;-76
2022/03/12 00:16:31;;;;;;;11.30;7.60;;;;;;;-3.73;88.82;61624.47;5045021;28;20206;-77
2022/03/12 00:19:01;;;;;;;8.88;7.55;;;;;;;-3.99;89.54;61592.97;5025354;28;20210;-78
2022/03/12 00:21:30;;;;;;;11.98;8.07;;;;;;;-4.08;91.29;61586.28;5025312;28;20201;-77
2022/03/12 00:24:00;;;;;;;12.90;7.35;;;;;;;-3.89;92.27;61603.19;5044530;28;20537;-76
2022/03/12 00:26:31;;;;;;;9.20;6.65;;;;;;;-4.04;93.65;61592.81;5032366;28;20203;-75
2022/03/12 00:28:59;;;;;;;9.75;6.47;;;;;;;-4.16;99.03;61580.59;5023385;28;20267;-76
2022/03/12 00:31:26;;;;;;;16.92;9.07;;;;;;;-4.27;100.00;61563.88;5025177;28;20199;-76
2022/03/12 00:33:53;;;;;;;20.58;10.10;;;;;;;-4.30;100.00;61558.84;5025064;28;20191;-76
2022/03/12 00:36:20;;;;;;;14.15;9.95;;;;;;;-4.31;100.00;61565.28;5021258;28;20206;-76
2022/03/12 00:38:47;;;;;;;20.30;11.93;;;;;;;-4.10;100.00;61579.25;5038200;28;20229;-76
2022/03/12 00:41:16;;;;;;;21.40;10.63;;;;;;;-3.98;100.00;61596.47;5034689;28;20195;-76
2022/03/12 00:43:43;;;;;;;27.85;11.48;;;;;;;-3.84;100.00;61610.78;5032162;28;20237;-76
2022/03/12 00:46:11;;;;;;;20.48;11.65;;;;;;;-3.72;100.00;61618.03;5023973;28;20199;-76
2022/03/12 00:48:39;;;;;;;18.10;11.52;;;;;;;-3.74;100.00;61623.47;5025716;28;20214;-77
2022/03/12 00:51:06;;;;;;;20.90;12.70;;;;;;;-3.98;100.00;61598.44;5024869;28;20199;-77
2022/03/12 00:53:34;;;;;;;27.92;13.23;;;;;;;-4.14;100.00;61577.16;5042500;28;20226;-77
2022/03/12 00:56:01;;;;;;;19.65;11.38;;;;;;;-4.24;100.00;61566.94;5021497;28;20202;-76
2022/03/12 00:58:29;;;;;;;18.50;10.88;;;;;;;-4.33;100.00;61560.75;5024907;28;20226;-76
2022/03/12 01:00:57;;;;;;;26.52;12.18;;;;;;;-4.27;100.00;61564.41;5024925;28;20257;-76
2022/03/12 01:03:24;;;;;;;19.98;12.00;;;;;;;-4.07;100.00;61582.31;5026332;28;20318;-76
2022/03/12 01:05:58;;;;;;;19.50;10.55;;;;;;;-4.13;100.00;61578.19;5004349;28;20199;-77
2022/03/12 01:08:30;;;;;;;16.65;10.95;;;;;;;-4.15;100.00;61576.66;5005343;28;20214;-77
2022/03/12 01:11:00;;;;;;;18.13;10.45;;;;;;;-4.56;100.00;61539.28;5034971;28;20210;-76
2022/03/12 01:13:27;;;;;;;15.77;9.00;;;;;;;-4.68;100.00;61532.00;5026339;28;20237;-77
2022/03/12 01:15:56;;;;;;;14.77;8.68;;;;;;;-4.77;100.00;61518.88;5024812;28;20200;-75
2022/03/12 01:18:24;;;;;;;15.20;8.65;;;;;;;-4.50;100.00;61548.38;5024707;28;20222;-76
2022/03/12 01:20:52;;;;;;;7.25;5.15;;;;;;;-4.26;100.00;61562.94;5024390;28;20230;-76
2022/03/12 01:23:23;;;;;;;9.75;6.05;;;;;;;-4.19;100.00;61580.00;5033512;28;20245;-76
2022/03/12 01:25:51;;;;;;;8.90;6.43;;;;;;;-4.22;100.00;61569.00;5034198;28;20281;-76
2022/03/12 01:28:20;;;;;;;10.25;6.72;;;;;;;-4.15;100.00;61578.63;5024299;28;20226;-76
2022/03/12 01:31:02;;;;;;;8.57;6.35;;;;;;;-4.01;100.00;61593.41;5025748;28;20244;-75
2022/03/12 01:33:34;;;;;;;9.98;6.53;;;;;;;-3.81;100.00;61611.34;5030973;28;20218;-77
2022/03/12 01:36:06;;;;;;;9.80;5.97;;;;;;;-3.70;100.00;61619.56;5032885;28;20391;-75
2022/03/12 01:38:52;;;;;;;9.30;6.50;;;;;;;-3.81;100.00;61608.34;5032455;28;20226;-75
2022/03/12 01:41:22;;;;;;;8.75;6.03;;;;;;;-4.04;100.00;61587.38;5037313;28;20216;-76
2022/03/12 01:43:49;;;;;;;7.78;6.07;;;;;;;-4.10;100.00;61586.19;5033071;28;20238;-75
2022/03/12 01:46:18;;;;;;;7.80;5.50;;;;;;;-4.28;100.00;61565.84;5026280;28;20191;-77
2022/03/12 01:48:47;;;;;;;7.75;5.95;;;;;;;-4.35;100.00;61553.75;5021621;28;20223;-76
2022/03/12 01:51:15;;;;;;;9.98;6.05;;;;;;;-4.33;100.00;61558.28;5027129;28;20253;-77
2022/03/12 01:53:42;;;;;;;9.02;6.57;;;;;;;-4.38;100.00;61547.72;5040514;28;20503;-76
2022/03/12 01:56:09;;;;;;;11.95;7.22;;;;;;;-4.28;100.00;61560.88;5043782;28;20270;-77
2022/03/12 01:58:36;;;;;;;9.50;6.20;;;;;;;-4.34;100.00;61556.75;5026698;28;20456;-76
2022/03/12 02:01:04;;;;;;;9.82;6.20;;;;;;;-4.26;100.00;61562.44;5025498;28;20253;-76
2022/03/12 02:03:32;;;;;;;8.95;5.45;;;;;;;-4.10;100.00;61584.22;5035940;28;20237;-76
2022/03/12 02:06:00;;;;;;;5.95;4.72;;;;;;;-4.26;100.00;61567.91;5043698;28;20533;-76
2022/03/12 02:08:29;;;;;;;6.38;4.80;;;;;;;-4.15;100.00;61576.66;5021177;28;20551;-76
2022/03/12 02:10:58;;;;;;;5.20;4.55;;;;;;;-4.14;100.00;61574.69;5026607;28;20250;-77
2022/03/12 02:13:26;;;;;;;3.97;3.35;;;;;;;-3.98;100.00;61591.00;5043239;28;20229;-77
2022/03/12 02:16:05;;;;;;;4.75;3.58;;;;;;;-4.00;100.00;61594.44;5038167;28;20430;-77
2022/03/12 02:18:34;;;;;;;4.50;4.18;;;;;;;-3.85;100.00;61611.72;5026990;28;20241;-77
2022/03/12 02:21:01;;;;;;;3.85;3.55;;;;;;;-3.79;100.00;61615.88;5033619;28;20248;-77
2022/03/12 02:23:29;;;;;;;3.88;3.15;;;;;;;-3.72;100.00;61623.03;5042030;28;20365;-76
2022/03/12 02:26:03;;;;;;;4.75;4.28;;;;;;;-3.68;100.00;61622.13;5028307;28;20205;-75
2022/03/12 02:28:30;;;;;;;4.90;3.80;;;;;;;-3.63;100.00;61634.19;5030217;28;20531;-77
2022/03/12 02:30:57;;;;;;;6.43;3.63;;;;;;;-3.62;99.47;61627.75;5033325;28;20221;-77
2022/03/12 02:33:28;;;;;;;4.95;3.40;;;;;;;-3.59;98.77;61638.78;5041067;28;20453;-78
2022/03/12 02:35:56;;;;;;;4.82;3.20;;;;;;;-3.69;97.86;61628.56;5026333;28;20477;-77
2022/03/12 02:38:25;;;;;;;5.00;3.58;;;;;;;-3.66;97.63;61626.16;5027685;28;20226;-77
2022/03/12 02:40:52;;;;;;;5.60;3.85;;;;;;;-3.58;96.42;61637.31;5037757;28;20224;-76
2022/03/12 02:43:26;;;;;;;3.65;2.70;;;;;;;-3.63;94.69;61629.22;5033678;28;20226;-76
2022/03/12 02:45:57;;;;;;;4.75;3.15;;;;;;;-3.84;92.96;61608.28;5026193;28;20301;-77
2022/03/12 02:48:25;;;;;;;4.95;3.30;;;;;;;-3.80;94.31;61612.38;5027277;28;20223;-76
2022/03/12 02:50:53;;;;;;;6.90;3.80;;;;;;;-3.81;94.73;61608.84;5026950;28;20220;-77
2022/03/12 02:53:20;;;;;;;7.10;4.07;;;;;;;-3.80;93.29;61611.84;5028970;28;20224;-77
2022/03/12 02:55:47;;;;;;;5.75;3.78;;;;;;;-3.80;93.18;61612.38;5034271;28;20198;-77
2022/03/12 02:58:16;;;;;;;4.53;3.33;;;;;;;-3.78;92.50;61616.38;5026942;28;20218;-77
2022/03/12 03:00:45;;;;;;;4.88;3.80;;;;;;;-3.79;91.58;61618.38;5037564;28;20198;-77
2022/03/12 03:03:12;;;;;;;9.63;4.10;;;;;;;-3.75;91.67;61614.47;5026288;28;20261;-77
2022/03/12 03:05:46;;;;;;;5.55;3.75;;;;;;;-3.84;90.88;61608.28;5028147;28;20265;-77
2022/03/12 03:08:16;;;;;;;4.75;3.53;;;;;;;-3.77;90.59;61617.41;5026824;28;20230;-78
2022/03/12 03:10:45;;;;;;;4.70;3.72;;;;;;;-3.79;89.69;61617.84;5026336;28;20260;-76
2022/03/12 03:13:34;;;;;;;5.63;3.50;;;;;;;-3.73;89.41;61622.00;5028980;28;20234;-77
2022/03/12 03:16:04;;;;;;;5.60;4.32;;;;;;;-3.71;89.13;61618.56;5046549;28;20236;-76
2022/03/12 03:18:33;;;;;;;6.40;3.95;;;;;;;-3.63;89.11;61626.72;5040390;28;20566;-78
2022/03/12 03:21:01;;;;;;;6.60;4.50;;;;;;;-3.66;88.68;61629.13;5024431;28;20257;-77
2022/03/12 03:23:31;;;;;;;5.40;3.95;;;;;;;-3.62;88.77;61630.22;5027074;28;20218;-77
2022/03/12 03:26:00;;;;;;;5.38;4.28;;;;;;;-3.67;88.20;61628.13;5020593;28;20218;-77
2022/03/12 03:28:26;;;;;;;6.30;4.18;;;;;;;-3.70;86.50;61622.59;5020141;28;20570;-76
2022/03/12 03:30:53;;;;;;;5.00;3.90;;;;;;;-3.62;85.68;61630.75;5025068;28;20384;-77
2022/03/12 03:33:25;;;;;;;7.13;4.10;;;;;;;-3.64;86.33;61630.66;5026238;28;20577;-77
2022/03/12 03:35:52;;;;;;;6.07;4.38;;;;;;;-3.76;87.01;61613.44;5026173;28;20237;-77
2022/03/12 03:38:19;;;;;;;4.72;4.15;;;;;;;-3.89;88.56;61605.16;5023631;28;20233;-77
2022/03/12 03:40:47;;;;;;;8.32;5.00;;;;;;;-3.77;90.00;61622.88;5038855;28;20224;-77
2022/03/12 03:43:16;;;;;;;6.60;4.70;;;;;;;-3.71;91.37;61621.53;5026362;28;20230;-77
2022/03/12 03:45:45;;;;;;;6.13;4.78;;;;;;;-3.72;91.96;61625.00;5024767;28;20240;-78
2022/03/12 03:48:14;;;;;;;5.38;3.63;;;;;;;-3.89;91.23;61605.16;5027972;28;20577;-77
2022/03/12 03:50:43;;;;;;;7.65;4.22;;;;;;;-3.92;91.70;61605.06;5041260;28;20248;-77
2022/03/12 03:53:12;;;;;;;6.65;4.47;;;;;;;-3.84;92.14;61613.25;5045784;28;20453;-77
2022/03/12 03:55:39;;;;;;;8.02;5.32;;;;;;;-3.79;91.60;61615.34;5034895;28;20245;-78
2022/03/12 03:58:06;;;;;;;7.03;5.25;;;;;;;-3.82;90.37;61614.78;5026811;28;20234;-77
2022/03/12 04:00:33;;;;;;;5.78;4.32;;;;;;;-3.84;91.34;61605.81;5043459;28;20378;-77
2022/03/12 04:03:02;;;;;;;7.40;4.88;;;;;;;-3.91;90.39;61601.13;5033600;28;20558;-77
2022/03/12 04:05:31;;;;;;;7.72;5.25;;;;;;;-3.95;90.82;61594.56;5022262;28;20234;-77
2022/03/12 04:08:00;;;;;;;6.70;5.20;;;;;;;-4.04;90.78;61585.38;5033043;28;20408;-78
2022/03/12 04:10:27;;;;;;;7.47;5.57;;;;;;;-3.99;91.40;61594.94;5036124;28;20207;-76
2022/03/12 04:12:55;;;;;;;8.50;5.80;;;;;;;-3.95;91.80;61604.50;5043569;28;20273;-77
2022/03/12 04:15:23;;;;;;;10.60;5.55;;;;;;;-4.00;91.38;61591.94;5024353;28;20202;-77
2022/03/12 04:17:51;;;;;;;8.65;5.05;;;;;;;-3.95;91.15;61591.59;5022818;28;20440;-77
2022/03/12 04:20:19;;;;;;;7.43;4.63;;;;;;;-3.91;90.51;61603.63;5026136;28;20198;-77
2022/03/12 04:22:47;;;;;;;8.57;5.40;;;;;;;-3.88;89.23;61606.16;5023376;28;20418;-77
2022/03/12 04:25:16;;;;;;;8.10;4.38;;;;;;;-3.90;88.81;61601.66;5025987;28;20237;-77
2022/03/12 04:27:44;;;;;;;5.57;4.43;;;;;;;-3.96;88.24;61593.03;5035008;28;20225;-78
2022/03/12 04:30:12;;;;;;;7.97;4.32;;;;;;;-3.96;87.95;61593.03;5046046;28;20202;-76
2022/03/12 04:32:40;;;;;;;5.25;4.03;;;;;;;-3.86;87.89;61613.69;5025957;28;20435;-77
2022/03/12 04:35:08;;;;;;;5.47;3.75;;;;;;;-3.89;87.76;61600.69;5025418;28;20218;-77
2022/03/12 04:37:36;;;;;;;4.95;4.25;;;;;;;-3.94;87.73;61600.56;5036458;28;20217;-77
2022/03/12 04:40:08;;;;;;;8.63;5.03;;;;;;;-4.08;87.71;61591.25;5024375;28;20240;-77
2022/03/12 04:42:38;;;;;;;5.90;4.80;;;;;;;-4.10;87.41;61581.22;5024174;28;20265;-77
2022/03/12 04:45:07;;;;;;;5.75;5.18;;;;;;;-4.02;87.33;61589.91;5025538;28;20281;-77
2022/03/12 04:47:33;;;;;;;9.90;6.57;;;;;;;-4.02;87.78;61589.91;5039943;28;20279;-77
2022/03/12 04:50:02;;;;;;;10.43;6.15;;;;;;;-3.98;87.26;61594.00;5033769;28;20377;-77
2022/03/12 04:52:30;;;;;;;9.23;6.05;;;;;;;-4.01;87.10;61592.91;5024451;28;20411;-76
2022/03/12 04:54:58;;;;;;;9.20;5.32;;;;;;;-4.01;86.79;61587.94;5025177;28;20246;-77
2022/03/12 04:57:25;;;;;;;7.18;5.05;;;;;;;-4.06;87.31;61588.31;5025861;28;20382;-77
2022/03/12 04:59:53;;;;;;;8.18;5.85;;;;;;;-4.05;87.17;61593.78;5020977;28;20209;-77
2022/03/12 05:02:20;;;;;;;4.95;4.38;;;;;;;-4.19;87.47;61572.56;5024031;28;20218;-76
2022/03/12 05:04:47;;;;;;;10.13;5.63;;;;;;;-4.14;87.98;61580.13;5024602;28;20272;-76
2022/03/12 05:07:14;;;;;;;8.13;5.15;;;;;;;-4.09;88.34;61577.28;5020193;28;20233;-77
2022/03/12 05:09:41;;;;;;;8.85;4.18;;;;;;;-4.03;88.25;61590.88;5024907;28;20256;-77
2022/03/12 05:12:09;;;;;;;5.47;4.38;;;;;;;-4.02;87.95;61594.38;5042477;28;20253;-78
2022/03/12 05:14:36;;;;;;;6.40;4.13;;;;;;;-4.21;88.01;61570.50;5046961;28;20201;-78
2022/03/12 05:17:08;;;;;;;4.97;4.18;;;;;;;-4.36;89.27;61557.69;5033234;28;20531;-78
2022/03/12 05:19:36;;;;;;;7.07;5.13;;;;;;;-4.23;90.68;61575.94;5023866;28;20198;-78
2022/03/12 05:22:04;;;;;;;11.05;5.93;;;;;;;-4.10;91.69;61581.75;5017953;28;20278;-77
2022/03/12 05:24:32;;;;;;;14.25;6.70;;;;;;;-4.15;92.91;61571.16;5015513;28;20242;-78
2022/03/12 05:26:59;;;;;;;13.52;6.20;;;;;;;-4.21;93.43;61577.97;5020754;28;20226;-79
2022/03/12 05:29:27;;;;;;;11.20;7.13;;;;;;;-4.38;93.74;61550.19;5019921;28;20214;-78
2022/03/12 05:31:54;;;;;;;12.07;7.47;;;;;;;-4.42;95.25;61553.56;5022582;28;20253;-78
2022/03/12 05:34:23;;;;;;;11.02;7.00;;;;;;;-4.39;95.50;61557.13;5025898;28;20249;-76
2022/03/12 05:36:50;;;;;;;14.27;6.85;;;;;;;-4.46;95.64;61552.47;5031437;28;20607;-77
2022/03/12 05:39:17;;;;;;;11.63;7.28;;;;;;;-4.44;95.87;61549.03;5031317;28;20504;-78
2022/03/12 05:41:49;;;;;;;10.40;7.00;;;;;;;-4.49;96.33;61543.94;5032628;28;20219;-77
2022/03/12 05:44:16;;;;;;;7.80;6.22;;;;;;;-4.68;97.89;61520.59;5030404;28;20252;-78
2022/03/12 05:46:44;;;;;;;10.30;6.75;;;;;;;-4.92;100.00;61503.56;5036090;28;20218;-77
2022/03/12 05:49:11;;;;;;;13.68;7.40;;;;;;;-4.86;100.00;61509.19;5027140;28;20202;-77
2022/03/12 05:51:43;;;;;;;17.05;8.93;;;;;;;-4.91;100.00;61502.13;5026825;28;20230;-77
2022/03/12 05:54:10;;;;;;;14.63;8.55;;;;;;;-4.63;100.00;61534.59;5030070;28;20572;-77
2022/03/12 05:56:40;;;;;;;14.57;8.55;;;;;;;-4.38;100.00;61550.69;5029102;28;20245;-78
2022/03/12 05:59:07;;;;;;;13.50;8.90;;;;;;;-4.10;100.00;61581.75;5030454;28;20202;-77
2022/03/12 06:01:34;;;;;;;12.82;8.38;;;;;;;-3.84;100.00;61605.81;5029638;28;20273;-78
2022/03/12 06:04:01;;;;;;;12.73;8.77;;;;;;;-3.61;100.00;61629.25;5031953;28;20218;-78
2022/03/12 06:06:29;;;;;;;10.82;7.95;;;;;;;-3.77;100.00;61617.41;5035129;28;20218;-78
2022/03/12 06:08:57;;;;;;;16.75;9.50;;;;;;;-3.74;100.00;61622.94;5033515;28;20222;-78
2022/03/12 06:11:25;;;;;;;16.15;9.73;;;;;;;-3.46;100.00;61648.53;5032536;28;20202;-79
2022/03/12 06:13:57;;;;;;;13.18;9.00;;;;;;;-3.98;100.00;61595.97;5030820;28;20206;-78
2022/03/12 06:16:25;;;;;;;14.27;9.07;;;;;;;-3.86;100.00;61603.25;5033335;28;20241;-79
2022/03/12 06:18:53;;;;;;;14.70;9.35;;;;;;;-3.85;100.00;61607.25;5031725;28;20203;-79
2022/03/12 06:21:22;;;;;;;15.23;8.82;;;;;;;-3.36;100.00;61661.75;5032391;28;20209;-79
2022/03/12 06:23:49;;;;;;;14.82;8.57;;;;;;;-3.61;100.00;61636.22;5027847;28;20439;-78
2022/03/12 06:26:22;;;;;;;10.48;7.82;;;;;;;-3.56;100.00;61639.38;5029782;28;20601;-78
2022/03/12 06:28:49;;;;;;;20.58;10.80;;;;;;;-3.39;100.00;61663.16;5029564;28;20240;-79
2022/03/12 06:31:16;;;;;;;15.15;9.15;;;;;;;-2.72;100.00;61716.66;5038212;28;20202;-80
2022/03/12 06:33:43;;;;;;;15.15;9.43;;;;;;;-2.32;100.00;61757.56;5039056;28;20232;-80
2022/03/12 06:36:12;;;;;;;13.88;8.70;;;;;;;-2.23;100.00;61774.25;5032054;28;20214;-81
2022/03/12 06:38:39;;;;;;;12.82;9.65;;;;;;;-1.88;96.45;61812.50;5029281;28;20246;-77
2022/03/12 06:41:08;;;;;;;12.70;8.15;;;;;;;-1.56;93.24;61837.25;5029732;28;20209;-79
2022/03/12 06:43:40;;;;;;;8.75;7.07;;;;;;;-1.41;89.26;61855.63;5028836;28;20301;-78
2022/03/12 06:46:07;;;;;;;8.43;6.78;;;;;;;-1.54;84.91;61844.81;5024412;28;20282;-78
2022/03/12 06:48:35;;;;;;;7.07;5.30;;;;;;;-1.83;83.35;61814.63;5029208;28;20218;-78
2022/03/12 06:51:02;;;;;;;6.57;5.30;;;;;;;-1.58;79.77;61837.69;5028184;28;20199;-78
2022/03/12 06:53:31;;;;;;;10.20;6.03;;;;;;;-1.39;77.84;61857.66;5029243;28;20249;-77
2022/03/12 06:55:58;;;;;;;7.57;5.60;;;;;;;-1.27;76.45;61867.44;5027092;28;20241;-78
2022/03/12 06:58:26;;;;;;;6.25;4.97;;;;;;;-1.21;76.64;61878.06;5026534;28;20227;-76
2022/03/12 07:00:55;;;;;;;7.68;5.68;;;;;;;-1.19;73.86;61878.13;5027166;28;20215;-76
2022/03/12 07:03:22;;;;;;;8.65;6.03;;;;;;;-1.56;73.44;61842.25;5027324;28;20262;-78
2022/03/12 07:05:49;;;;;;;7.32;5.60;;;;;;;-1.50;71.26;61840.91;5025159;28;20296;-77
2022/03/12 07:08:16;;;;;;;8.05;5.22;;;;;;;-1.94;72.13;61806.38;5025404;28;20257;-77
2022/03/12 07:10:43;;;;;;;7.45;5.50;;;;;;;-1.48;73.48;61850.94;5026206;28;20199;-77
2022/03/12 07:13:09;;;;;;;7.82;4.72;;;;;;;-1.25;71.21;61872.00;5024670;28;20385;-77
2022/03/12 07:15:36;;;;;;;9.85;6.00;;;;;;;-0.94;70.46;61897.69;5026270;28;20199;-77
2022/03/12 07:18:05;;;;;;;7.57;6.13;;;;;;;-0.85;67.16;61912.44;5025486;28;20230;-78
2022/03/12 07:20:32;;;;;;;9.60;6.25;;;;;;;-1.18;67.66;61878.63;5025387;28;20430;-76
2022/03/12 07:22:58;;;;;;;7.95;5.55;;;;;;;-1.02;68.91;61894.50;5024969;28;20223;-76
2022/03/12 07:25:25;;;;;;;9.00;5.93;;;;;;;-0.89;66.98;61907.81;5025397;28;20437;-79
2022/03/12 07:27:53;;;;;;;7.60;4.30;;;;;;;-1.38;67.29;61853.69;5009055;28;20211;-77
2022/03/12 07:30:21;;;;;;;6.88;4.47;;;;;;;-1.63;66.09;61827.59;5008358;28;20501;-76
2022/03/12 07:32:48;;;;;;;4.55;4.05;;;;;;;-2.00;66.10;61797.25;5022107;28;20254;-78
2022/03/12 07:35:18;;;;;;;4.07;3.70;;;;;;;-1.89;65.89;61806.50;5026871;28;20206;-76
2022/03/12 07:37:49;;;;;;;4.30;3.60;;;;;;;-2.05;68.27;61790.13;5028514;28;20219;-78
2022/03/12 07:40:17;;;;;;;5.75;3.97;;;;;;;-2.50;65.78;61749.13;5027571;28;20222;-79
2022/03/12 07:42:46;;;;;;;4.97;4.10;;;;;;;-2.51;64.63;61743.63;5028866;28;20222;-77
2022/03/12 07:45:13;;;;;;;6.75;4.72;;;;;;;-3.07;64.69;61683.91;5026258;28;20586;-78
2022/03/12 07:47:40;;;;;;;5.03;4.38;;;;;;;-2.57;73.72;61732.00;5030937;28;20530;-77
2022/03/12 07:50:09;;;;;;;5.40;4.90;;;;;;;-2.46;71.61;61743.75;5017889;28;20249;-77
2022/03/12 07:52:38;;;;;;;7.40;4.80;;;;;;;-2.60;69.97;61731.41;5029594;28;20223;-78
2022/03/12 07:55:09;;;;;;;5.28;4.05;;;;;;;-2.91;68.58;61699.75;5030397;28;20211;-77
2022/03/12 07:57:37;;;;;;;4.95;3.92;;;;;;;-2.95;66.17;61698.66;5031506;28;20414;-78
2022/03/12 08:00:08;;;;;;;4.68;3.70;;;;;;;-3.00;64.21;61688.56;5025378;28;20210;-78
2022/03/12 08:02:35;;;;;;;4.97;4.45;;;;;;;-2.67;64.10;61726.75;5025388;28;20307;-78
2022/03/12 08:05:02;;;;;;;5.38;3.90;;;;;;;-2.27;66.40;61767.13;5025279;28;20280;-76
2022/03/12 08:07:33;;;;;;;12.82;4.38;;;;;;;-1.67;56.46;61831.50;5023311;28;20235;-77
2022/03/12 08:10:02;;;;;;;4.47;3.47;;;;;;;-1.17;55.66;61880.19;5025623;28;20198;-77
2022/03/12 08:12:31;;;;;;;3.63;3.33;;;;;;;-0.64;54.69;61938.91;5021034;28;20587;-79
2022/03/12 08:15:02;;;;;;;6.38;3.50;;;;;;;-0.10;53.56;61983.72;5017596;28;20210;-79
2022/03/12 08:17:29;;;;;;;5.28;3.25;;;;;;;0.35;50.98;62034.31;5017294;28;20230;-78
2022/03/12 08:19:56;;;;;;;7.55;3.55;;;;;;;0.39;52.59;62033.41;5021019;28;20195;-78
2022/03/12 08:22:23;;;;;;;4.10;3.55;;;;;;;0.45;52.61;62042.09;5023033;28;20219;-79
2022/03/12 08:24:50;;;;;;;3.85;3.40;;;;;;;-0.01;49.14;61995.44;5021412;28;20214;-79
2022/03/12 08:27:19;;;;;;;4.60;4.18;;;;;;;0.00;52.19;61998.97;5019699;28;20286;-77
2022/03/12 08:29:46;;;;;;;4.07;3.67;;;;;;;0.33;49.69;62030.28;5020613;28;20477;-79
2022/03/12 08:32:13;;;;;;;4.43;4.03;;;;;;;0.47;48.66;62046.63;5014032;28;20227;-77
2022/03/12 08:34:41;;;;;;;4.50;3.90;;;;;;;-0.63;49.22;61929.44;5019346;28;20210;-76
2022/03/12 08:37:08;;;;;;;4.63;3.70;;;;;;;-0.73;51.95;61924.19;5020138;28;20214;-78
2022/03/12 08:39:37;;;;;;;5.07;4.25;;;;;;;-0.64;53.08;61936.41;5018390;28;20520;-76
2022/03/12 08:42:06;;;;;;;5.45;4.03;;;;;;;-1.02;52.59;61900.03;5021395;28;20252;-79
2022/03/12 08:44:35;;;;;;;4.38;4.00;;;;;;;-1.90;54.13;61808.00;5027296;28;20199;-78
2022/03/12 08:47:02;;;;;;;4.95;3.95;;;;;;;-1.97;54.95;61795.31;5028279;28;20246;-77
2022/03/12 08:49:29;;;;;;;4.28;3.88;;;;;;;-2.30;55.62;61766.56;5018428;28;20422;-79
2022/03/12 08:51:56;;;;;;;5.18;4.28;;;;;;;-2.36;57.23;61755.94;5022924;28;20219;-77
2022/03/12 08:54:23;;;;;;;7.10;4.82;;;;;;;-2.11;57.04;61781.00;5022262;28;20199;-77
2022/03/12 08:56:50;;;;;;;7.70;4.82;;;;;;;-1.85;58.02;61810.09;5020455;28;20218;-77
2022/03/12 08:59:17;;;;;;;4.70;4.10;;;;;;;-1.47;57.18;61849.47;5019516;28;20195;-77
2022/03/12 09:01:47;;;;;;;5.65;4.45;;;;;;;-1.37;54.94;61859.19;5022321;28;20228;-77
2022/03/12 09:04:15;;;;;;;8.15;4.78;;;;;;;-1.22;54.07;61877.03;5025268;28;20207;-77
2022/03/12 09:06:42;;;;;;;4.90;4.38;;;;;;;-0.92;54.55;61907.75;5025441;28;20281;-76
2022/03/12 09:09:09;;;;;;;8.75;4.60;;;;;;;-0.91;51.82;61906.28;5023220;28;20257;-77
2022/03/12 09:11:37;;;;;;;7.80;4.47;;;;;;;-0.60;54.27;61937.50;5024295;28;20222;-79
2022/03/12 09:14:04;;;;;;;7.30;5.03;;;;;;;-0.22;54.24;61974.44;5022230;28;20209;-77
2022/03/12 09:16:31;;;;;;;6.40;4.35;;;;;;;-0.36;50.05;61965.09;5026573;28;20207;-80
2022/03/12 09:18:59;;;;;;;7.43;4.20;;;;;;;-0.27;50.97;61971.81;5026537;28;20206;-79
2022/03/12 09:21:26;;;;;;;4.50;4.03;;;;;;;-0.07;50.54;61991.81;5024596;28;20276;-80
2022/03/12 09:23:53;;;;;;;6.50;4.70;;;;;;;-0.10;53.59;61991.75;5022563;28;20242;-77
2022/03/12 09:26:22;;;;;;;5.40;4.47;;;;;;;0.32;51.63;62034.28;5025994;28;20229;-78
2022/03/12 09:28:49;;;;;;;4.68;4.22;;;;;;;-0.29;50.90;61969.25;5026006;28;20205;-79
2022/03/12 09:31:17;;;;;;;5.35;4.45;;;;;;;-0.10;57.22;61988.72;5025987;28;20266;-80
2022/03/12 09:33:44;;;;;;;5.53;4.35;;;;;;;-0.18;53.93;61983.53;5023799;28;20214;-81
2022/03/12 09:36:12;;;;;;;5.88;4.90;;;;;;;-0.49;54.42;61944.28;5025909;28;20206;-78
2022/03/12 09:38:40;;;;;;;5.38;4.68;;;;;;;-0.09;55.40;61992.25;5025642;28;20223;-80
2022/03/12 09:41:07;;;;;;;4.85;4.25;;;;;;;-0.12;52.78;61984.16;5025064;28;20222;-78
2022/03/12 09:43:34;;;;;;;5.15;4.60;;;;;;;0.19;52.43;62020.94;5015336;28;20226;-78
2022/03/12 09:46:01;;;;;;;5.28;4.43;;;;;;;0.41;51.22;62043.50;5020725;28;20386;-78
2022/03/12 09:48:28;;;;;;;4.57;3.75;;;;;;;0.09;53.61;62008.19;5024139;28;20285;-78
2022/03/12 09:50:55;;;;;;;4.38;3.97;;;;;;;0.55;50.27;62059.84;5022753;28;20207;-78
2022/03/12 09:53:23;;;;;;;6.10;4.32;;;;;;;0.86;49.14;62087.13;5025068;28;20214;-77
2022/03/12 09:55:50;;;;;;;4.90;4.00;;;;;;;1.13;49.05;62114.31;5025028;28;20222;-79
2022/03/12 09:58:18;;;;;;;5.07;4.30;;;;;;;1.01;48.27;62102.00;5025019;28;20351;-78
2022/03/12 10:00:45;;;;;;;4.57;4.18;;;;;;;1.72;48.39;62171.84;5020892;28;20225;-78
2022/03/12 10:03:13;;;;;;;5.38;3.88;;;;;;;2.20;50.43;62224.16;5026300;28;20446;-77
2022/03/12 10:05:40;;;;;;;6.05;4.00;;;;;;;2.41;48.55;62242.16;5025916;28;20545;-78
2022/03/12 10:08:07;;;;;;;6.80;4.65;;;;;;;2.38;48.48;62242.63;5025510;28;20321;-77
2022/03/12 10:10:36;;;;;;;4.97;4.50;;;;;;;2.25;49.46;62228.75;5023847;28;20207;-78
2022/03/12 10:13:04;;;;;;;5.97;4.40;;;;;;;2.10;48.02;62213.88;5013692;28;20462;-81
2022/03/12 10:15:35;;;;;;;5.72;4.32;;;;;;;1.99;47.40;62202.56;5026127;28;20198;-79
2022/03/12 10:18:03;;;;;;;4.72;4.32;;;;;;;1.48;49.27;62149.72;5030400;28;20421;-79
2022/03/12 10:20:30;;;;;;;5.95;4.30;;;;;;;1.47;47.45;62149.19;5028147;28;20201;-79
2022/03/12 10:22:57;;;;;;;5.80;3.78;;;;;;;1.36;47.35;62137.91;5031469;28;20633;-77
2022/03/12 10:25:25;;;;;;;4.70;4.25;;;;;;;1.53;45.01;62159.88;5027091;28;20309;-78
2022/03/12 10:27:53;;;;;;;6.82;5.05;;;;;;;0.53;44.50;62055.28;5028458;28;20222;-79
2022/03/12 10:30:23;;;;;;;4.90;3.70;;;;;;;0.35;46.33;62039.84;5030467;28;20251;-78
2022/03/12 10:32:51;;;;;;;6.68;4.10;;;;;;;0.98;48.30;62101.94;5031083;28;20224;-79
2022/03/12 10:35:21;;;;;;;5.82;4.47;;;;;;;1.35;45.58;62136.38;5027398;28;20427;-78
2022/03/12 10:37:49;;;;;;;5.10;3.70;;;;;;;1.00;46.78;62098.97;5033203;28;20229;-77
2022/03/12 10:40:17;;;;;;;6.20;4.13;;;;;;;0.74;45.73;62077.31;5036746;28;20194;-79
2022/03/12 10:42:50;;;;;;;8.82;3.58;;;;;;;0.26;46.00;62025.63;5031208;28;20244;-77
2022/03/12 10:45:20;;;;;;;5.40;3.40;;;;;;;0.06;46.35;62004.59;5034653;28;20203;-78
2022/03/12 10:47:48;;;;;;;4.15;3.75;;;;;;;-0.45;47.89;61950.88;5039603;28;20262;-78
2022/03/12 10:50:19;;;;;;;4.80;3.60;;;;;;;-0.09;48.63;61987.25;5031466;28;20199;-77
2022/03/12 10:52:50;;;;;;;4.88;3.65;;;;;;;0.73;51.21;62073.28;5028267;28;20233;-77
2022/03/12 10:55:25;;;;;;;3.80;3.15;;;;;;;1.53;45.22;62157.34;5028091;28;20201;-78
2022/03/12 10:58:05;;;;;;;3.83;3.50;;;;;;;2.05;44.54;62208.72;5026461;28;20248;-77
2022/03/12 11:00:38;;;;;;;5.93;3.67;;;;;;;1.66;43.61;62171.22;5019060;28;20203;-78
2022/03/12 11:03:08;;;;;;;4.30;3.47;;;;;;;1.73;44.28;62175.38;5028188;28;20257;-78
2022/03/12 11:05:36;;;;;;;4.30;3.88;;;;;;;2.00;49.25;62203.09;5021212;28;20219;-77
2022/03/12 11:08:17;;;;;;;5.18;3.67;;;;;;;1.84;43.52;62184.66;5026092;28;20272;-78
2022/03/12 11:10:46;;;;;;;8.00;3.47;;;;;;;2.23;44.84;62227.22;5027116;28;20396;-78
2022/03/12 11:13:26;;;;;;;4.47;3.92;;;;;;;2.56;49.16;62260.59;5029917;28;20226;-77
2022/03/12 11:16:07;;;;;;;4.80;4.20;;;;;;;2.68;44.86;62272.94;5031952;28;20221;-78
2022/03/12 11:18:35;;;;;;;4.45;4.00;;;;;;;1.68;50.32;62168.25;5032440;28;20229;-79
2022/03/12 11:21:02;;;;;;;6.40;4.25;;;;;;;0.71;51.09;62069.25;5032939;28;20217;-78
2022/03/12 11:23:32;;;;;;;4.38;3.67;;;;;;;0.53;55.25;62053.31;5030432;28;20431;-77
2022/03/12 11:26:06;;;;;;;7.75;3.22;;;;;;;0.53;45.30;62050.28;5033734;28;20202;-77
2022/03/12 11:28:35;;;;;;;5.53;3.50;;;;;;;0.52;44.13;62056.78;5028881;28;20219;-76
2022/03/12 11:31:04;;;;;;;4.97;4.15;;;;;;;0.75;48.43;62075.34;5026770;28;20213;-77
2022/03/12 11:33:34;;;;;;;4.75;4.00;;;;;;;1.57;46.79;62158.97;5027720;28;20222;-77
2022/03/12 11:36:04;;;;;;;4.07;3.67;;;;;;;1.90;47.07;62193.34;5026994;28;20494;-77
2022/03/12 11:38:32;;;;;;;4.35;3.75;;;;;;;1.71;44.38;62173.31;5028501;28;20249;-77